sensor_id;sensor_type;location;lat;lon;timestamp;pressure;altitude;pressure_sealevel;temperature;humidity
58471;BME280;44258;51.288;12.068;2024-03-22T00:01:47;101124.78;;;11.14;59.32
58471;BME280;44258;51.288;12.068;2024-03-22T00:04:15;101137.59;;;11.28;59.00
58471;BME280;44258;51.288;12.068;2024-03-22T00:06:41;101127.41;;;11.15;59.46
58471;BME280;44258;51.288;12.068;2024-03-22T00:09:08;101126.81;;;11.09;59.95
58471;BME280;44258;51.288;12.068;2024-03-22T00:11:33;101122.22;;;11.11;59.44
58471;BME280;44258;51.288;12.068;2024-03-22T00:14:07;101117.34;;;11.00;59.43
58471;BME280;44258;51.288;12.068;2024-03-22T00:16:33;101101.25;;;10.99;60.06
58471;BME280;44258;51.288;12.068;2024-03-22T00:19:02;101106.69;;;10.97;60.01
58471;BME280;44258;51.288;12.068;2024-03-22T00:21:28;101103.22;;;10.95;60.47
58471;BME280;44258;51.288;12.068;2024-03-22T00:23:55;101099.00;;;10.89;61.21
58471;BME280;44258;51.288;12.068;2024-03-22T00:26:21;101099.31;;;10.61;61.07
58471;BME280;44258;51.288;12.068;2024-03-22T00:28:48;101092.72;;;10.68;61.46
58471;BME280;44258;51.288;12.068;2024-03-22T00:31:14;101098.09;;;10.68;62.05
58471;BME280;44258;51.288;12.068;2024-03-22T00:33:41;101091.91;;;10.66;62.09
58471;BME280;44258;51.288;12.068;2024-03-22T00:36:09;101091.00;;;10.47;62.79
58471;BME280;44258;51.288;12.068;2024-03-22T00:38:36;101095.69;;;10.62;62.44
58471;BME280;44258;51.288;12.068;2024-03-22T00:41:02;101091.59;;;10.53;62.35
58471;BME280;44258;51.288;12.068;2024-03-22T00:43:29;101092.94;;;10.64;62.35
58471;BME280;44258;51.288;12.068;2024-03-22T00:45:55;101092.72;;;10.68;62.17
58471;BME280;44258;51.288;12.068;2024-03-22T00:48:22;101082.22;;;10.62;62.67
58471;BME280;44258;51.288;12.068;2024-03-22T00:50:48;101079.81;;;10.56;63.16
58471;BME280;44258;51.288;12.068;2024-03-22T00:53:16;101081.63;;;10.55;63.30
58471;BME280;44258;51.288;12.068;2024-03-22T00:55:42;101079.69;;;10.59;63.03
58471;BME280;44258;51.288;12.068;2024-03-22T00:58:08;101077.44;;;10.48;63.68
58471;BME280;44258;51.288;12.068;2024-03-22T01:00:34;101072.63;;;10.36;63.50
58471;BME280;44258;51.288;12.068;2024-03-22T01:03:02;101063.34;;;10.43;63.41
58471;BME280;44258;51.288;12.068;2024-03-22T01:05:28;101053.53;;;10.42;63.33
58471;BME280;44258;51.288;12.068;2024-03-22T01:07:54;101050.84;;;10.42;63.04
58471;BME280;44258;51.288;12.068;2024-03-22T01:10:21;101051.47;;;10.28;63.52
58471;BME280;44258;51.288;12.068;2024-03-22T01:12:48;101043.66;;;10.43;62.90
58471;BME280;44258;51.288;12.068;2024-03-22T01:15:13;101042.38;;;10.31;62.65
58471;BME280;44258;51.288;12.068;2024-03-22T01:17:40;101024.84;;;10.43;62.06
58471;BME280;44258;51.288;12.068;2024-03-22T01:20:07;101025.66;;;10.45;62.37
58471;BME280;44258;51.288;12.068;2024-03-22T01:22:34;101032.16;;;10.39;62.41
58471;BME280;44258;51.288;12.068;2024-03-22T01:24:59;101031.31;;;10.18;63.00
58471;BME280;44258;51.288;12.068;2024-03-22T01:27:27;101026.31;;;10.29;62.60
58471;BME280;44258;51.288;12.068;2024-03-22T01:29:53;101020.72;;;10.34;62.88
58471;BME280;44258;51.288;12.068;2024-03-22T01:32:19;101025.13;;;10.37;62.78
58471;BME280;44258;51.288;12.068;2024-03-22T01:34:45;101018.78;;;10.17;62.92
58471;BME280;44258;51.288;12.068;2024-03-22T01:37:12;101014.16;;;10.21;63.05
58471;BME280;44258;51.288;12.068;2024-03-22T01:39:37;101016.16;;;10.15;63.14
58471;BME280;44258;51.288;12.068;2024-03-22T01:42:04;101008.84;;;10.19;62.65
58471;BME280;44258;51.288;12.068;2024-03-22T01:44:32;101011.31;;;10.24;62.58
58471;BME280;44258;51.288;12.068;2024-03-22T01:46:59;100997.88;;;10.24;62.77
58471;BME280;44258;51.288;12.068;2024-03-22T01:49:25;101000.19;;;10.12;62.84
58471;BME280;44258;51.288;12.068;2024-03-22T01:51:52;100993.41;;;10.24;62.37
58471;BME280;44258;51.288;12.068;2024-03-22T01:54:19;100989.50;;;10.31;62.24
58471;BME280;44258;51.288;12.068;2024-03-22T01:56:46;100987.22;;;10.22;62.37
58471;BME280;44258;51.288;12.068;2024-03-22T01:59:14;100989.28;;;10.15;62.76
58471;BME280;44258;51.288;12.068;2024-03-22T02:01:42;100983.31;;;10.09;62.75
58471;BME280;44258;51.288;12.068;2024-03-22T02:04:09;100975.94;;;10.14;62.48
58471;BME280;44258;51.288;12.068;2024-03-22T02:06:36;100973.84;;;10.21;62.24
58471;BME280;44258;51.288;12.068;2024-03-22T02:09:01;100972.84;;;10.03;62.26
58471;BME280;44258;51.288;12.068;2024-03-22T02:11:30;100969.59;;;10.15;62.09
58471;BME280;44258;51.288;12.068;2024-03-22T02:13:56;100962.00;;;10.25;61.99
58471;BME280;44258;51.288;12.068;2024-03-22T02:16:23;100967.84;;;10.34;61.91
58471;BME280;44258;51.288;12.068;2024-03-22T02:18:50;100955.03;;;10.21;62.01
58471;BME280;44258;51.288;12.068;2024-03-22T02:21:16;100960.25;;;10.24;61.56
58471;BME280;44258;51.288;12.068;2024-03-22T02:23:47;100948.78;;;10.20;62.13
58471;BME280;44258;51.288;12.068;2024-03-22T02:26:14;100942.25;;;10.26;62.02
58471;BME280;44258;51.288;12.068;2024-03-22T02:28:39;100940.84;;;10.17;62.04
58471;BME280;44258;51.288;12.068;2024-03-22T02:31:06;100933.84;;;10.33;61.42
58471;BME280;44258;51.288;12.068;2024-03-22T02:33:32;100934.81;;;10.32;61.56
58471;BME280;44258;51.288;12.068;2024-03-22T02:35:58;100934.41;;;10.40;61.23
58471;BME280;44258;51.288;12.068;2024-03-22T02:38:24;100927.25;;;10.41;61.71
58471;BME280;44258;51.288;12.068;2024-03-22T02:40:53;100937.72;;;10.47;61.41
58471;BME280;44258;51.288;12.068;2024-03-22T02:43:19;100942.59;;;10.58;61.42
58471;BME280;44258;51.288;12.068;2024-03-22T02:45:47;100936.41;;;10.55;61.20
58471;BME280;44258;51.288;12.068;2024-03-22T02:48:13;100938.94;;;10.40;62.05
58471;BME280;44258;51.288;12.068;2024-03-22T02:50:40;100942.25;;;10.26;62.59
58471;BME280;44258;51.288;12.068;2024-03-22T02:53:06;100935.94;;;10.27;62.63
58471;BME280;44258;51.288;12.068;2024-03-22T02:55:36;100930.50;;;10.28;62.45
58471;BME280;44258;51.288;12.068;2024-03-22T02:58:04;100933.09;;;10.30;62.61
58471;BME280;44258;51.288;12.068;2024-03-22T03:00:32;100930.88;;;10.40;62.25
58471;BME280;44258;51.288;12.068;2024-03-22T03:03:00;100916.22;;;10.47;62.09
58471;BME280;44258;51.288;12.068;2024-03-22T03:05:30;100911.19;;;10.39;61.85
58471;BME280;44258;51.288;12.068;2024-03-22T03:07:56;100917.22;;;10.44;61.84
58471;BME280;44258;51.288;12.068;2024-03-22T03:10:26;100913.59;;;10.45;61.51
58471;BME280;44258;51.288;12.068;2024-03-22T03:12:51;100917.22;;;10.44;61.74
58471;BME280;44258;51.288;12.068;2024-03-22T03:15:20;100910.91;;;10.45;61.76
58471;BME280;44258;51.288;12.068;2024-03-22T03:17:46;100913.09;;;10.56;61.56
58471;BME280;44258;51.288;12.068;2024-03-22T03:20:13;100908.31;;;10.63;61.26
58471;BME280;44258;51.288;12.068;2024-03-22T03:22:38;100903.91;;;10.41;61.64
58471;BME280;44258;51.288;12.068;2024-03-22T03:25:06;100903.84;;;10.43;61.66
58471;BME280;44258;51.288;12.068;2024-03-22T03:27:36;100893.75;;;10.48;61.48
58471;BME280;44258;51.288;12.068;2024-03-22T03:30:04;100897.81;;;10.57;61.33
58471;BME280;44258;51.288;12.068;2024-03-22T03:32:31;100887.94;;;10.57;61.47
58471;BME280;44258;51.288;12.068;2024-03-22T03:34:58;100891.16;;;10.65;61.19
58471;BME280;44258;51.288;12.068;2024-03-22T03:37:24;100880.06;;;10.33;61.78
58471;BME280;44258;51.288;12.068;2024-03-22T03:39:52;100880.06;;;10.52;61.57
58471;BME280;44258;51.288;12.068;2024-03-22T03:42:18;100868.09;;;10.41;61.61
58471;BME280;44258;51.288;12.068;2024-03-22T03:44:45;100869.72;;;10.45;61.33
58471;BME280;44258;51.288;12.068;2024-03-22T03:47:10;100863.94;;;10.33;62.16
58471;BME280;44258;51.288;12.068;2024-03-22T03:49:39;100861.94;;;10.39;61.83
58471;BME280;44258;51.288;12.068;2024-03-22T03:52:05;100860.84;;;10.43;61.85
58471;BME280;44258;51.288;12.068;2024-03-22T03:54:32;100853.91;;;10.56;61.62
58471;BME280;44258;51.288;12.068;2024-03-22T03:56:57;100852.09;;;10.38;61.57
58471;BME280;44258;51.288;12.068;2024-03-22T03:59:24;100855.59;;;10.59;61.34
58471;BME280;44258;51.288;12.068;2024-03-22T04:01:50;100854.06;;;10.34;62.16
58471;BME280;44258;51.288;12.068;2024-03-22T04:04:16;100852.63;;;10.46;62.00
58471;BME280;44258;51.288;12.068;2024-03-22T04:06:45;100852.22;;;10.15;63.00
58471;BME280;44258;51.288;12.068;2024-03-22T04:09:12;100846.78;;;10.17;63.06
58471;BME280;44258;51.288;12.068;2024-03-22T04:11:37;100851.19;;;9.99;63.35
58471;BME280;44258;51.288;12.068;2024-03-22T04:14:04;100847.53;;;10.21;62.70
58471;BME280;44258;51.288;12.068;2024-03-22T04:16:31;100841.13;;;10.23;62.58
58471;BME280;44258;51.288;12.068;2024-03-22T04:18:58;100844.31;;;10.31;62.63
58471;BME280;44258;51.288;12.068;2024-03-22T04:21:23;100833.50;;;10.14;62.77
58471;BME280;44258;51.288;12.068;2024-03-22T04:23:51;100833.63;;;10.30;62.46
58471;BME280;44258;51.288;12.068;2024-03-22T04:26:17;100826.75;;;10.43;62.15
58471;BME280;44258;51.288;12.068;2024-03-22T04:28:45;100819.63;;;10.42;62.18
58471;BME280;44258;51.288;12.068;2024-03-22T04:31:11;100826.75;;;10.24;62.44
58471;BME280;44258;51.288;12.068;2024-03-22T04:33:38;100822.69;;;10.34;62.40
58471;BME280;44258;51.288;12.068;2024-03-22T04:36:04;100827.56;;;10.26;63.08
58471;BME280;44258;51.288;12.068;2024-03-22T04:38:31;100821.44;;;10.23;63.30
58471;BME280;44258;51.288;12.068;2024-03-22T04:40:59;100818.59;;;10.26;63.37
58471;BME280;44258;51.288;12.068;2024-03-22T04:43:26;100810.69;;;10.42;62.83
58471;BME280;44258;51.288;12.068;2024-03-22T04:45:54;100809.31;;;10.52;62.45
58471;BME280;44258;51.288;12.068;2024-03-22T04:48:25;100804.72;;;10.54;62.24
58471;BME280;44258;51.288;12.068;2024-03-22T04:50:52;100808.22;;;10.56;62.16
58471;BME280;44258;51.288;12.068;2024-03-22T04:53:20;100798.19;;;10.60;61.97
58471;BME280;44258;51.288;12.068;2024-03-22T04:55:47;100793.66;;;10.60;62.00
58471;BME280;44258;51.288;12.068;2024-03-22T04:58:16;100792.25;;;10.53;62.18
58471;BME280;44258;51.288;12.068;2024-03-22T05:00:43;100788.69;;;10.33;62.67
58471;BME280;44258;51.288;12.068;2024-03-22T05:03:10;100787.78;;;10.52;62.42
58471;BME280;44258;51.288;12.068;2024-03-22T05:05:36;100782.09;;;10.58;61.90
58471;BME280;44258;51.288;12.068;2024-03-22T05:08:04;100785.47;;;10.44;62.31
58471;BME280;44258;51.288;12.068;2024-03-22T05:10:30;100790.97;;;10.60;62.01
58471;BME280;44258;51.288;12.068;2024-03-22T05:12:57;100794.13;;;10.51;62.00
58471;BME280;44258;51.288;12.068;2024-03-22T05:15:25;100785.56;;;10.43;62.05
58471;BME280;44258;51.288;12.068;2024-03-22T05:17:52;100775.59;;;10.45;62.14
58471;BME280;44258;51.288;12.068;2024-03-22T05:20:19;100777.19;;;10.49;61.81
58471;BME280;44258;51.288;12.068;2024-03-22T05:22:45;100775.09;;;10.37;62.14
58471;BME280;44258;51.288;12.068;2024-03-22T05:25:12;100767.75;;;10.40;62.07
58471;BME280;44258;51.288;12.068;2024-03-22T05:27:38;100767.56;;;10.62;61.45
58471;BME280;44258;51.288;12.068;2024-03-22T05:30:06;100766.63;;;10.63;61.32
58471;BME280;44258;51.288;12.068;2024-03-22T05:32:34;100760.16;;;10.67;61.31
58471;BME280;44258;51.288;12.068;2024-03-22T05:35:01;100753.13;;;10.65;61.47
58471;BME280;44258;51.288;12.068;2024-03-22T05:37:29;100760.75;;;10.55;61.74
58471;BME280;44258;51.288;12.068;2024-03-22T05:39:56;100758.75;;;10.78;60.80
58471;BME280;44258;51.288;12.068;2024-03-22T05:42:21;100760.22;;;10.66;61.18
58471;BME280;44258;51.288;12.068;2024-03-22T05:44:48;100758.50;;;10.65;61.09
58471;BME280;44258;51.288;12.068;2024-03-22T05:47:13;100763.97;;;10.44;61.95
58471;BME280;44258;51.288;12.068;2024-03-22T05:49:42;100760.28;;;10.64;61.31
58471;BME280;44258;51.288;12.068;2024-03-22T05:52:08;100761.22;;;10.82;60.71
58471;BME280;44258;51.288;12.068;2024-03-22T05:54:34;100758.34;;;10.68;61.42
58471;BME280;44258;51.288;12.068;2024-03-22T05:57:01;100753.66;;;10.90;61.20
58471;BME280;44258;51.288;12.068;2024-03-22T05:59:30;100755.63;;;11.04;60.71
58471;BME280;44258;51.288;12.068;2024-03-22T06:01:56;100756.03;;;11.14;60.44
58471;BME280;44258;51.288;12.068;2024-03-22T06:04:23;100754.03;;;11.18;60.08
58471;BME280;44258;51.288;12.068;2024-03-22T06:06:50;100749.16;;;11.08;60.57
58471;BME280;44258;51.288;12.068;2024-03-22T06:09:16;100746.75;;;11.20;59.74
58471;BME280;44258;51.288;12.068;2024-03-22T06:11:49;100746.22;;;11.30;59.72
58471;BME280;44258;51.288;12.068;2024-03-22T06:14:15;100752.47;;;11.31;59.43
58471;BME280;44258;51.288;12.068;2024-03-22T06:16:41;100751.66;;;11.11;60.03
58471;BME280;44258;51.288;12.068;2024-03-22T06:19:08;100747.88;;;10.98;60.56
58471;BME280;44258;51.288;12.068;2024-03-22T06:21:36;100743.19;;;11.19;60.51
58471;BME280;44258;51.288;12.068;2024-03-22T06:24:05;100744.22;;;11.17;60.15
58471;BME280;44258;51.288;12.068;2024-03-22T06:26:31;100739.47;;;11.39;59.94
58471;BME280;44258;51.288;12.068;2024-03-22T06:28:58;100741.75;;;11.47;59.87
58471;BME280;44258;51.288;12.068;2024-03-22T06:31:23;100740.66;;;11.33;59.49
58471;BME280;44258;51.288;12.068;2024-03-22T06:33:50;100737.75;;;11.54;58.77
58471;BME280;44258;51.288;12.068;2024-03-22T06:36:16;100723.97;;;11.60;58.53
58471;BME280;44258;51.288;12.068;2024-03-22T06:38:44;100722.75;;;11.66;58.45
58471;BME280;44258;51.288;12.068;2024-03-22T06:41:11;100713.19;;;11.60;58.53
58471;BME280;44258;51.288;12.068;2024-03-22T06:43:37;100716.06;;;11.57;59.04
58471;BME280;44258;51.288;12.068;2024-03-22T06:46:03;100709.84;;;11.39;59.13
58471;BME280;44258;51.288;12.068;2024-03-22T06:48:30;100720.41;;;11.60;58.59
58471;BME280;44258;51.288;12.068;2024-03-22T06:50:58;100712.69;;;11.69;58.49
58471;BME280;44258;51.288;12.068;2024-03-22T06:53:26;100707.00;;;11.58;58.97
58471;BME280;44258;51.288;12.068;2024-03-22T06:55:52;100703.31;;;11.61;58.61
58471;BME280;44258;51.288;12.068;2024-03-22T06:58:20;100691.97;;;11.54;58.59
58471;BME280;44258;51.288;12.068;2024-03-22T07:00:46;100693.19;;;11.48;58.70
58471;BME280;44258;51.288;12.068;2024-03-22T07:03:12;100690.06;;;11.40;59.15
58471;BME280;44258;51.288;12.068;2024-03-22T07:05:42;100690.19;;;11.37;59.53
58471;BME280;44258;51.288;12.068;2024-03-22T07:08:09;100683.09;;;11.52;59.03
58471;BME280;44258;51.288;12.068;2024-03-22T07:10:34;100683.69;;;11.41;59.23
58471;BME280;44258;51.288;12.068;2024-03-22T07:13:01;100675.25;;;11.65;58.87
58471;BME280;44258;51.288;12.068;2024-03-22T07:15:29;100686.19;;;11.78;58.49
58471;BME280;44258;51.288;12.068;2024-03-22T07:17:58;100679.16;;;11.91;58.00
58471;BME280;44258;51.288;12.068;2024-03-22T07:20:25;100681.94;;;11.73;58.63
58471;BME280;44258;51.288;12.068;2024-03-22T07:22:52;100673.50;;;11.80;58.71
58471;BME280;44258;51.288;12.068;2024-03-22T07:25:18;100684.22;;;11.81;58.57
58471;BME280;44258;51.288;12.068;2024-03-22T07:27:45;100695.63;;;11.53;59.87
58471;BME280;44258;51.288;12.068;2024-03-22T07:30:13;100688.94;;;11.60;60.15
58471;BME280;44258;51.288;12.068;2024-03-22T07:32:41;100682.19;;;11.85;59.70
58471;BME280;44258;51.288;12.068;2024-03-22T07:35:10;100687.28;;;12.07;58.77
58471;BME280;44258;51.288;12.068;2024-03-22T07:37:37;100679.75;;;12.13;59.19
58471;BME280;44258;51.288;12.068;2024-03-22T07:40:03;100684.34;;;12.11;59.20
58471;BME280;44258;51.288;12.068;2024-03-22T07:42:30;100669.09;;;12.42;58.07
58471;BME280;44258;51.288;12.068;2024-03-22T07:44:56;100674.78;;;12.22;58.81
58471;BME280;44258;51.288;12.068;2024-03-22T07:47:23;100678.19;;;12.55;58.29
58471;BME280;44258;51.288;12.068;2024-03-22T07:49:50;100677.75;;;12.63;57.99
58471;BME280;44258;51.288;12.068;2024-03-22T07:52:17;100671.81;;;12.72;58.25
58471;BME280;44258;51.288;12.068;2024-03-22T07:54:44;100669.53;;;12.81;57.83
58471;BME280;44258;51.288;12.068;2024-03-22T07:57:11;100667.81;;;12.94;58.35
58471;BME280;44258;51.288;12.068;2024-03-22T07:59:36;100670.00;;;12.87;58.54
58471;BME280;44258;51.288;12.068;2024-03-22T08:02:03;100671.53;;;12.77;59.03
58471;BME280;44258;51.288;12.068;2024-03-22T08:04:30;100669.66;;;13.08;59.05
58471;BME280;44258;51.288;12.068;2024-03-22T08:06:58;100676.38;;;13.31;58.32
58471;BME280;44258;51.288;12.068;2024-03-22T08:09:23;100669.16;;;13.60;57.65
58471;BME280;44258;51.288;12.068;2024-03-22T08:11:52;100662.81;;;13.88;57.05
58471;BME280;44258;51.288;12.068;2024-03-22T08:14:18;100667.09;;;13.92;56.77
58471;BME280;44258;51.288;12.068;2024-03-22T08:16:44;100670.94;;;13.88;56.69
58471;BME280;44258;51.288;12.068;2024-03-22T08:19:10;100663.22;;;13.97;57.50
58471;BME280;44258;51.288;12.068;2024-03-22T08:21:37;100673.06;;;13.98;57.23
58471;BME280;44258;51.288;12.068;2024-03-22T08:24:05;100670.41;;;14.10;56.41
58471;BME280;44258;51.288;12.068;2024-03-22T08:26:32;100665.06;;;14.23;56.31
58471;BME280;44258;51.288;12.068;2024-03-22T08:28:59;100660.72;;;14.21;56.25
58471;BME280;44258;51.288;12.068;2024-03-22T08:31:26;100665.53;;;14.30;56.05
58471;BME280;44258;51.288;12.068;2024-03-22T08:33:54;100656.53;;;14.44;55.72
58471;BME280;44258;51.288;12.068;2024-03-22T08:36:22;100654.59;;;14.46;55.48
58471;BME280;44258;51.288;12.068;2024-03-22T08:38:48;100647.88;;;14.51;55.41
58471;BME280;44258;51.288;12.068;2024-03-22T08:41:19;100651.84;;;14.19;55.31
58471;BME280;44258;51.288;12.068;2024-03-22T08:43:45;100658.81;;;14.08;56.43
58471;BME280;44258;51.288;12.068;2024-03-22T08:46:12;100650.88;;;14.20;54.98
58471;BME280;44258;51.288;12.068;2024-03-22T08:48:37;100641.19;;;14.30;55.01
58471;BME280;44258;51.288;12.068;2024-03-22T08:51:04;100639.69;;;14.11;55.76
58471;BME280;44258;51.288;12.068;2024-03-22T08:53:30;100636.91;;;14.40;55.23
58471;BME280;44258;51.288;12.068;2024-03-22T08:55:58;100624.84;;;14.59;55.33
58471;BME280;44258;51.288;12.068;2024-03-22T08:58:29;100612.75;;;14.77;54.20
58471;BME280;44258;51.288;12.068;2024-03-22T09:00:56;100613.94;;;14.86;54.67
58471;BME280;44258;51.288;12.068;2024-03-22T09:03:21;100602.69;;;15.18;54.07
58471;BME280;44258;51.288;12.068;2024-03-22T09:05:52;100603.66;;;15.17;53.50
58471;BME280;44258;51.288;12.068;2024-03-22T09:08:18;100606.03;;;15.08;53.94
58471;BME280;44258;51.288;12.068;2024-03-22T09:10:44;100595.97;;;15.36;53.80
58471;BME280;44258;51.288;12.068;2024-03-22T09:13:10;100597.72;;;15.11;53.26
58471;BME280;44258;51.288;12.068;2024-03-22T09:15:39;100584.72;;;14.91;53.90
58471;BME280;44258;51.288;12.068;2024-03-22T09:18:05;100592.06;;;15.14;53.75
58471;BME280;44258;51.288;12.068;2024-03-22T09:20:32;100582.53;;;15.22;53.67
58471;BME280;44258;51.288;12.068;2024-03-22T09:22:58;100573.50;;;15.47;53.16
58471;BME280;44258;51.288;12.068;2024-03-22T09:25:27;100569.34;;;15.67;53.54
58471;BME280;44258;51.288;12.068;2024-03-22T09:27:52;100574.03;;;15.89;52.71
58471;BME280;44258;51.288;12.068;2024-03-22T09:30:19;100568.50;;;15.90;52.33
58471;BME280;44258;51.288;12.068;2024-03-22T09:32:46;100563.09;;;15.90;52.48
58471;BME280;44258;51.288;12.068;2024-03-22T09:35:17;100555.00;;;16.02;52.03
58471;BME280;44258;51.288;12.068;2024-03-22T09:37:43;100562.47;;;16.22;51.79
58471;BME280;44258;51.288;12.068;2024-03-22T09:40:11;100556.16;;;16.34;51.92
58471;BME280;44258;51.288;12.068;2024-03-22T09:42:38;100559.75;;;16.35;51.62
58471;BME280;44258;51.288;12.068;2024-03-22T09:45:08;100559.28;;;16.17;51.46
58471;BME280;44258;51.288;12.068;2024-03-22T09:47:36;100554.34;;;16.22;52.30
58471;BME280;44258;51.288;12.068;2024-03-22T09:50:06;100547.31;;;16.20;52.34
58471;BME280;44258;51.288;12.068;2024-03-22T09:52:33;100551.50;;;15.88;51.93
58471;BME280;44258;51.288;12.068;2024-03-22T09:55:04;100550.38;;;15.91;52.23
58471;BME280;44258;51.288;12.068;2024-03-22T09:57:31;100539.75;;;16.12;52.04
58471;BME280;44258;51.288;12.068;2024-03-22T09:59:59;100535.13;;;16.25;51.72
58471;BME280;44258;51.288;12.068;2024-03-22T10:02:25;100536.34;;;16.21;52.16
58471;BME280;44258;51.288;12.068;2024-03-22T10:04:56;100523.38;;;15.89;53.09
58471;BME280;44258;51.288;12.068;2024-03-22T10:07:24;100529.53;;;15.67;53.85
58471;BME280;44258;51.288;12.068;2024-03-22T10:09:51;100529.56;;;15.91;53.73
58471;BME280;44258;51.288;12.068;2024-03-22T10:12:19;100529.72;;;15.77;53.12
58471;BME280;44258;51.288;12.068;2024-03-22T10:14:46;100521.22;;;16.06;53.39
58471;BME280;44258;51.288;12.068;2024-03-22T10:17:12;100522.50;;;16.13;52.85
58471;BME280;44258;51.288;12.068;2024-03-22T10:19:39;100522.22;;;16.29;52.58
58471;BME280;44258;51.288;12.068;2024-03-22T10:22:06;100513.72;;;16.33;52.72
58471;BME280;44258;51.288;12.068;2024-03-22T10:24:36;100510.94;;;16.22;53.07
58471;BME280;44258;51.288;12.068;2024-03-22T10:27:02;100511.47;;;16.27;53.31
58471;BME280;44258;51.288;12.068;2024-03-22T10:29:28;100511.28;;;16.42;52.48
58471;BME280;44258;51.288;12.068;2024-03-22T10:31:55;100498.88;;;16.62;52.33
58471;BME280;44258;51.288;12.068;2024-03-22T10:34:24;100502.19;;;16.77;51.85
58471;BME280;44258;51.288;12.068;2024-03-22T10:36:50;100497.41;;;16.80;51.54
58471;BME280;44258;51.288;12.068;2024-03-22T10:39:19;100496.28;;;16.83;52.53
58471;BME280;44258;51.288;12.068;2024-03-22T10:41:47;100488.41;;;17.02;51.22
58471;BME280;44258;51.288;12.068;2024-03-22T10:44:16;100493.31;;;16.97;51.71
58471;BME280;44258;51.288;12.068;2024-03-22T10:46:44;100485.41;;;17.05;51.25
58471;BME280;44258;51.288;12.068;2024-03-22T10:49:16;100488.25;;;17.15;51.16
58471;BME280;44258;51.288;12.068;2024-03-22T10:51:44;100475.78;;;17.24;51.37
58471;BME280;44258;51.288;12.068;2024-03-22T10:54:13;100474.66;;;17.38;51.33
58471;BME280;44258;51.288;12.068;2024-03-22T10:56:47;100468.75;;;17.32;51.27
58471;BME280;44258;51.288;12.068;2024-03-22T10:59:15;100468.94;;;17.52;51.12
58471;BME280;44258;51.288;12.068;2024-03-22T11:01:45;100460.50;;;17.66;50.67
58471;BME280;44258;51.288;12.068;2024-03-22T11:04:12;100471.06;;;17.81;50.87
58471;BME280;44258;51.288;12.068;2024-03-22T11:06:47;100458.91;;;17.52;50.99
58471;BME280;44258;51.288;12.068;2024-03-22T11:09:21;100448.47;;;17.69;50.92
58471;BME280;44258;51.288;12.068;2024-03-22T11:11:48;100447.19;;;17.84;50.23
58471;BME280;44258;51.288;12.068;2024-03-22T11:14:17;100451.16;;;17.80;50.79
58471;BME280;44258;51.288;12.068;2024-03-22T11:16:43;100437.34;;;17.40;50.17
58471;BME280;44258;51.288;12.068;2024-03-22T11:19:11;100444.53;;;17.41;50.76
58471;BME280;44258;51.288;12.068;2024-03-22T11:21:37;100435.63;;;17.71;50.88
58471;BME280;44258;51.288;12.068;2024-03-22T11:24:08;100431.28;;;17.80;51.19
58471;BME280;44258;51.288;12.068;2024-03-22T11:26:38;100424.66;;;17.93;50.44
58471;BME280;44258;51.288;12.068;2024-03-22T11:29:08;100426.78;;;17.90;50.61
58471;BME280;44258;51.288;12.068;2024-03-22T11:31:34;100420.28;;;18.02;50.55
58471;BME280;44258;51.288;12.068;2024-03-22T11:34:02;100408.44;;;18.24;50.21
58471;BME280;44258;51.288;12.068;2024-03-22T11:36:29;100409.06;;;18.38;50.14
58471;BME280;44258;51.288;12.068;2024-03-22T11:38:56;100389.59;;;18.42;49.74
58471;BME280;44258;51.288;12.068;2024-03-22T11:41:24;100401.00;;;18.57;49.72
58471;BME280;44258;51.288;12.068;2024-03-22T11:43:53;100404.44;;;18.59;49.33
58471;BME280;44258;51.288;12.068;2024-03-22T11:46:21;100388.72;;;18.42;49.60
58471;BME280;44258;51.288;12.068;2024-03-22T11:48:51;100394.69;;;18.57;49.38
58471;BME280;44258;51.288;12.068;2024-03-22T11:51:20;100385.59;;;18.77;49.70
58471;BME280;44258;51.288;12.068;2024-03-22T11:53:51;100381.94;;;18.57;50.09
58471;BME280;44258;51.288;12.068;2024-03-22T11:56:21;100377.44;;;18.46;50.43
58471;BME280;44258;51.288;12.068;2024-03-22T11:58:49;100363.81;;;18.46;51.08
58471;BME280;44258;51.288;12.068;2024-03-22T12:01:18;100373.53;;;18.70;50.87
58471;BME280;44258;51.288;12.068;2024-03-22T12:03:48;100357.34;;;18.78;50.53
58471;BME280;44258;51.288;12.068;2024-03-22T12:06:18;100362.38;;;18.83;51.07
58471;BME280;44258;51.288;12.068;2024-03-22T12:08:48;100349.75;;;18.82;50.06
58471;BME280;44258;51.288;12.068;2024-03-22T12:11:13;100346.03;;;18.73;50.03
58471;BME280;44258;51.288;12.068;2024-03-22T12:13:40;100347.56;;;18.66;51.12
58471;BME280;44258;51.288;12.068;2024-03-22T12:16:09;100342.16;;;18.76;50.98
58471;BME280;44258;51.288;12.068;2024-03-22T12:18:36;100343.75;;;18.88;50.39
58471;BME280;44258;51.288;12.068;2024-03-22T12:21:04;100335.13;;;18.83;51.56
58471;BME280;44258;51.288;12.068;2024-03-22T12:23:31;100328.22;;;18.79;51.03
58471;BME280;44258;51.288;12.068;2024-03-22T12:26:00;100313.38;;;18.92;50.33
58471;BME280;44258;51.288;12.068;2024-03-22T12:28:31;100313.34;;;18.83;51.41
58471;BME280;44258;51.288;12.068;2024-03-22T12:30:58;100316.47;;;18.78;51.23
58471;BME280;44258;51.288;12.068;2024-03-22T12:33:25;100313.69;;;18.99;50.95
58471;BME280;44258;51.288;12.068;2024-03-22T12:35:52;100324.28;;;18.92;50.26
58471;BME280;44258;51.288;12.068;2024-03-22T12:38:21;100315.50;;;18.89;51.08
58471;BME280;44258;51.288;12.068;2024-03-22T12:40:51;100313.97;;;19.16;50.82